sensor_id;sensor_type;location;lat;lon;timestamp;pressure;altitude;pressure_sealevel;temperature;humidity
42771;BME280;28426;42.872;25.314;2023-04-28T00:00:14;97154.09;;;7.34;57.97
42771;BME280;28426;42.872;25.314;2023-04-28T00:02:45;97147.13;;;7.33;57.31
42771;BME280;28426;42.872;25.314;2023-04-28T00:05:16;97147.44;;;7.30;57.17
42771;BME280;28426;42.872;25.314;2023-04-28T00:07:48;97147.44;;;7.30;58.01
42771;BME280;28426;42.872;25.314;2023-04-28T00:10:19;97151.09;;;7.29;57.90
42771;BME280;28426;42.872;25.314;2023-04-28T00:12:50;97146.13;;;7.26;57.60
42771;BME280;28426;42.872;25.314;2023-04-28T00:15:23;97145.47;;;7.24;57.41
42771;BME280;28426;42.872;25.314;2023-04-28T00:17:54;97156.22;;;7.22;57.33
42771;BME280;28426;42.872;25.314;2023-04-28T00:20:25;97153.72;;;7.20;57.64
42771;BME280;28426;42.872;25.314;2023-04-28T00:22:56;97157.38;;;7.19;58.62
42771;BME280;28426;42.872;25.314;2023-04-28T00:25:26;97151.06;;;7.12;58.64
42771;BME280;28426;42.872;25.314;2023-04-28T00:27:57;97169.63;;;7.12;58.58
42771;BME280;28426;42.872;25.314;2023-04-28T00:30:31;97157.53;;;7.10;58.39
42771;BME280;28426;42.872;25.314;2023-04-28T00:33:02;97169.97;;;7.09;59.00
42771;BME280;28426;42.872;25.314;2023-04-28T00:35:33;97172.63;;;7.09;59.92
42771;BME280;28426;42.872;25.314;2023-04-28T00:38:03;97172.63;;;7.09;60.35
42771;BME280;28426;42.872;25.314;2023-04-28T00:40:35;97168.13;;;7.10;60.79
42771;BME280;28426;42.872;25.314;2023-04-28T00:43:06;97182.09;;;7.12;61.33
42771;BME280;28426;42.872;25.314;2023-04-28T00:45:39;97184.59;;;7.13;61.76
42771;BME280;28426;42.872;25.314;2023-04-28T00:48:10;97179.28;;;7.13;61.90
42771;BME280;28426;42.872;25.314;2023-04-28T00:50:43;97188.91;;;7.14;62.18
42771;BME280;28426;42.872;25.314;2023-04-28T00:53:13;97190.72;;;7.14;62.57
42771;BME280;28426;42.872;25.314;2023-04-28T00:55:46;97192.34;;;7.15;63.01
42771;BME280;28426;42.872;25.314;2023-04-28T00:58:18;97189.91;;;7.13;62.84
42771;BME280;28426;42.872;25.314;2023-04-28T01:00:51;97198.66;;;7.14;63.08
42771;BME280;28426;42.872;25.314;2023-04-28T01:03:22;97193.50;;;7.12;62.82
42771;BME280;28426;42.872;25.314;2023-04-28T01:05:54;97193.84;;;7.09;63.16
42771;BME280;28426;42.872;25.314;2023-04-28T01:08:28;97196.81;;;7.06;62.41
42771;BME280;28426;42.872;25.314;2023-04-28T01:11:00;97192.50;;;7.05;62.06
42771;BME280;28426;42.872;25.314;2023-04-28T01:13:57;97191.81;;;7.03;62.33
42771;BME280;28426;42.872;25.314;2023-04-28T01:16:37;97185.88;;;7.01;63.00
42771;BME280;28426;42.872;25.314;2023-04-28T01:19:09;97189.50;;;7.00;62.79
42771;BME280;28426;42.872;25.314;2023-04-28T01:21:42;97188.16;;;6.96;61.60
42771;BME280;28426;42.872;25.314;2023-04-28T01:24:22;97187.47;;;6.93;61.17
42771;BME280;28426;42.872;25.314;2023-04-28T01:26:55;97186.81;;;6.91;61.37
42771;BME280;28426;42.872;25.314;2023-04-28T01:29:27;97191.44;;;6.89;60.34
42771;BME280;28426;42.872;25.314;2023-04-28T01:31:58;97192.59;;;6.87;60.19
42771;BME280;28426;42.872;25.314;2023-04-28T01:34:29;97190.09;;;6.85;60.39
42771;BME280;28426;42.872;25.314;2023-04-28T01:37:00;97191.09;;;6.84;59.93
42771;BME280;28426;42.872;25.314;2023-04-28T01:39:33;97190.28;;;6.84;59.66
42771;BME280;28426;42.872;25.314;2023-04-28T01:42:04;97203.69;;;6.82;58.87
42771;BME280;28426;42.872;25.314;2023-04-28T01:44:35;97197.56;;;6.82;59.43
42771;BME280;28426;42.872;25.314;2023-04-28T01:47:06;97196.72;;;6.81;59.18
42771;BME280;28426;42.872;25.314;2023-04-28T01:49:37;97196.88;;;6.79;59.52
42771;BME280;28426;42.872;25.314;2023-04-28T01:52:08;97199.53;;;6.79;59.90
42771;BME280;28426;42.872;25.314;2023-04-28T01:54:42;97206.50;;;6.80;60.25
42771;BME280;28426;42.872;25.314;2023-04-28T01:57:13;97208.16;;;6.82;59.85
42771;BME280;28426;42.872;25.314;2023-04-28T01:59:44;97208.00;;;6.83;59.77
42771;BME280;28426;42.872;25.314;2023-04-28T02:02:16;97210.81;;;6.82;60.04
42771;BME280;28426;42.872;25.314;2023-04-28T02:04:47;97213.63;;;6.80;59.76
42771;BME280;28426;42.872;25.314;2023-04-28T02:07:19;97214.63;;;6.79;60.48
42771;BME280;28426;42.872;25.314;2023-04-28T02:09:52;97214.63;;;6.79;61.08
42771;BME280;28426;42.872;25.314;2023-04-28T02:12:23;97213.63;;;6.80;61.53
42771;BME280;28426;42.872;25.314;2023-04-28T02:14:54;97218.91;;;6.80;62.07
42771;BME280;28426;42.872;25.314;2023-04-28T02:17:29;97213.47;;;6.82;61.80
42771;BME280;28426;42.872;25.314;2023-04-28T02:20:00;97216.13;;;6.82;62.13
42771;BME280;28426;42.872;25.314;2023-04-28T02:22:32;97232.03;;;6.82;62.22
42771;BME280;28426;42.872;25.314;2023-04-28T02:25:07;97224.22;;;6.80;62.54
42771;BME280;28426;42.872;25.314;2023-04-28T02:27:38;97224.22;;;6.80;62.88
42771;BME280;28426;42.872;25.314;2023-04-28T02:30:10;97230.53;;;6.79;62.72
42771;BME280;28426;42.872;25.314;2023-04-28T02:32:40;97230.53;;;6.79;63.18
42771;BME280;28426;42.872;25.314;2023-04-28T02:35:11;97231.53;;;6.78;62.94
42771;BME280;28426;42.872;25.314;2023-04-28T02:37:42;97236.81;;;6.78;62.74
42771;BME280;28426;42.872;25.314;2023-04-28T02:40:16;97240.47;;;6.77;62.59
42771;BME280;28426;42.872;25.314;2023-04-28T02:42:47;97238.78;;;6.76;62.48
42771;BME280;28426;42.872;25.314;2023-04-28T02:45:18;97243.44;;;6.74;62.22
42771;BME280;28426;42.872;25.314;2023-04-28T02:47:49;97246.25;;;6.72;62.50
42771;BME280;28426;42.872;25.314;2023-04-28T02:50:20;97246.25;;;6.72;62.59
42771;BME280;28426;42.872;25.314;2023-04-28T02:52:51;97249.03;;;6.71;62.81
42771;BME280;28426;42.872;25.314;2023-04-28T02:55:24;97258.00;;;6.70;62.61
42771;BME280;28426;42.872;25.314;2023-04-28T02:57:55;97261.78;;;6.67;62.40
42771;BME280;28426;42.872;25.314;2023-04-28T03:00:26;97261.94;;;6.65;62.99
42771;BME280;28426;42.872;25.314;2023-04-28T03:02:57;97262.25;;;6.62;63.09
42771;BME280;28426;42.872;25.314;2023-04-28T03:05:28;97268.69;;;6.60;63.08
42771;BME280;28426;42.872;25.314;2023-04-28T03:08:00;97260.88;;;6.58;62.81
42771;BME280;28426;42.872;25.314;2023-04-28T03:10:33;97269.84;;;6.57;62.68
42771;BME280;28426;42.872;25.314;2023-04-28T03:13:05;97267.34;;;6.56;62.78
42771;BME280;28426;42.872;25.314;2023-04-28T03:15:35;97270.97;;;6.54;63.02
42771;BME280;28426;42.872;25.314;2023-04-28T03:18:06;97277.28;;;6.53;63.18
42771;BME280;28426;42.872;25.314;2023-04-28T03:20:38;97277.59;;;6.50;63.05
42771;BME280;28426;42.872;25.314;2023-04-28T03:23:09;97282.22;;;6.48;63.54
42771;BME280;28426;42.872;25.314;2023-04-28T03:25:42;97282.53;;;6.45;63.42
42771;BME280;28426;42.872;25.314;2023-04-28T03:28:13;97288.97;;;6.43;63.35
42771;BME280;28426;42.872;25.314;2023-04-28T03:30:44;97296.06;;;6.42;63.37
42771;BME280;28426;42.872;25.314;2023-04-28T03:33:16;97296.22;;;6.40;63.32
42771;BME280;28426;42.872;25.314;2023-04-28T03:35:47;97307.81;;;6.39;62.97
42771;BME280;28426;42.872;25.314;2023-04-28T03:38:18;97309.47;;;6.40;62.63
42771;BME280;28426;42.872;25.314;2023-04-28T03:40:52;97308.81;;;6.38;62.54
42771;BME280;28426;42.872;25.314;2023-04-28T03:43:42;97319.41;;;6.38;62.71
42771;BME280;28426;42.872;25.314;2023-04-28T03:46:24;97316.75;;;6.38;62.64
42771;BME280;28426;42.872;25.314;2023-04-28T03:48:58;97320.25;;;6.39;62.62
42771;BME280;28426;42.872;25.314;2023-04-28T03:51:30;97328.03;;;6.40;62.56
42771;BME280;28426;42.872;25.314;2023-04-28T03:54:01;97332.38;;;6.41;62.45
42771;BME280;28426;42.872;25.314;2023-04-28T03:56:35;97336.69;;;6.43;62.61
42771;BME280;28426;42.872;25.314;2023-04-28T03:59:06;97331.38;;;6.43;62.96
42771;BME280;28426;42.872;25.314;2023-04-28T04:01:38;97331.09;;;6.46;63.05
42771;BME280;28426;42.872;25.314;2023-04-28T04:04:10;97337.06;;;6.48;63.21
42771;BME280;28426;42.872;25.314;2023-04-28T04:06:41;97343.06;;;6.50;63.28
42771;BME280;28426;42.872;25.314;2023-04-28T04:09:13;97342.72;;;6.53;63.30
42771;BME280;28426;42.872;25.314;2023-04-28T04:11:46;97351.38;;;6.55;63.53
42771;BME280;28426;42.872;25.314;2023-04-28T04:14:17;97356.34;;;6.58;63.38
42771;BME280;28426;42.872;25.314;2023-04-28T04:16:48;97349.09;;;6.60;62.81
42771;BME280;28426;42.872;25.314;2023-04-28T04:19:19;97356.75;;;6.63;62.77
42771;BME280;28426;42.872;25.314;2023-04-28T04:21:53;97351.25;;;6.65;62.45
42771;BME280;28426;42.872;25.314;2023-04-28T04:24:24;97359.06;;;6.66;62.51
42771;BME280;28426;42.872;25.314;2023-04-28T04:26:58;97362.25;;;6.70;62.65
42771;BME280;28426;42.872;25.314;2023-04-28T04:29:38;97370.03;;;6.72;61.91
42771;BME280;28426;42.872;25.314;2023-04-28T04:32:14;97367.38;;;6.72;62.08
42771;BME280;28426;42.872;25.314;2023-04-28T04:34:45;97371.88;;;6.71;61.05
42771;BME280;28426;42.872;25.314;2023-04-28T04:37:16;97376.34;;;6.71;61.39
42771;BME280;28426;42.872;25.314;2023-04-28T04:39:56;97371.88;;;6.71;61.29
42771;BME280;28426;42.872;25.314;2023-04-28T04:42:34;97376.03;;;6.74;61.51
42771;BME280;28426;42.872;25.314;2023-04-28T04:45:08;97379.34;;;6.76;61.61
42771;BME280;28426;42.872;25.314;2023-04-28T04:47:39;97380.72;;;6.80;61.31
42771;BME280;28426;42.872;25.314;2023-04-28T04:50:11;97381.25;;;6.84;60.93
42771;BME280;28426;42.872;25.314;2023-04-28T04:52:42;97383.75;;;6.85;60.03
42771;BME280;28426;42.872;25.314;2023-04-28T04:55:12;97387.22;;;6.86;58.92
42771;BME280;28426;42.872;25.314;2023-04-28T04:57:46;97375.88;;;6.75;58.83
42771;BME280;28426;42.872;25.314;2023-04-28T05:00:30;97395.34;;;6.84;59.19
42771;BME280;28426;42.872;25.314;2023-04-28T05:03:02;97385.72;;;6.83;59.22
42771;BME280;28426;42.872;25.314;2023-04-28T05:05:33;97401.00;;;6.89;59.35
42771;BME280;28426;42.872;25.314;2023-04-28T05:08:10;97393.75;;;6.91;58.96
42771;BME280;28426;42.872;25.314;2023-04-28T05:10:41;97400.25;;;6.97;59.20
42771;BME280;28426;42.872;25.314;2023-04-28T05:13:16;97403.94;;;7.04;59.04
42771;BME280;28426;42.872;25.314;2023-04-28T05:15:50;97406.00;;;7.11;58.89
42771;BME280;28426;42.872;25.314;2023-04-28T05:18:30;97406.22;;;7.17;58.56
42771;BME280;28426;42.872;25.314;2023-04-28T05:21:02;97411.19;;;7.20;58.42
42771;BME280;28426;42.872;25.314;2023-04-28T05:23:33;97413.53;;;7.24;58.41
42771;BME280;28426;42.872;25.314;2023-04-28T05:26:04;97416.69;;;7.27;58.36
42771;BME280;28426;42.872;25.314;2023-04-28T05:28:38;97410.41;;;7.28;58.17
42771;BME280;28426;42.872;25.314;2023-04-28T05:31:09;97424.38;;;7.30;57.96
42771;BME280;28426;42.872;25.314;2023-04-28T05:33:40;97420.72;;;7.31;57.71
42771;BME280;28426;42.872;25.314;2023-04-28T05:36:11;97424.22;;;7.32;57.83
42771;BME280;28426;42.872;25.314;2023-04-28T05:38:45;97426.16;;;7.30;57.73
42771;BME280;28426;42.872;25.314;2023-04-28T05:41:16;97423.66;;;7.28;57.60
42771;BME280;28426;42.872;25.314;2023-04-28T05:43:49;97428.16;;;7.28;57.66
42771;BME280;28426;42.872;25.314;2023-04-28T05:46:20;97425.50;;;7.28;57.36
42771;BME280;28426;42.872;25.314;2023-04-28T05:48:58;97429.97;;;7.27;57.28
42771;BME280;28426;42.872;25.314;2023-04-28T05:51:34;97430.81;;;7.28;57.54
42771;BME280;28426;42.872;25.314;2023-04-28T05:54:05;97437.78;;;7.29;57.67
42771;BME280;28426;42.872;25.314;2023-04-28T05:56:41;97431.63;;;7.28;57.86
42771;BME280;28426;42.872;25.314;2023-04-28T05:59:15;97424.81;;;7.26;57.74
42771;BME280;28426;42.872;25.314;2023-04-28T06:01:46;97439.44;;;7.30;58.28
42771;BME280;28426;42.872;25.314;2023-04-28T06:04:17;97442.78;;;7.32;58.42
42771;BME280;28426;42.872;25.314;2023-04-28T06:06:49;97434.69;;;7.33;58.53
42771;BME280;28426;42.872;25.314;2023-04-28T06:09:20;97436.50;;;7.33;57.53
42771;BME280;28426;42.872;25.314;2023-04-28T06:11:52;97443.59;;;7.32;56.03
42771;BME280;28426;42.872;25.314;2023-04-28T06:14:27;97445.09;;;7.27;55.79
42771;BME280;28426;42.872;25.314;2023-04-28T06:16:59;97440.44;;;7.29;55.80
42771;BME280;28426;42.872;25.314;2023-04-28T06:19:30;97447.56;;;7.28;56.18
42771;BME280;28426;42.872;25.314;2023-04-28T06:22:00;97450.91;;;7.30;56.45
42771;BME280;28426;42.872;25.314;2023-04-28T06:24:32;97445.44;;;7.32;56.64
42771;BME280;28426;42.872;25.314;2023-04-28T06:27:07;97450.59;;;7.33;56.22
42771;BME280;28426;42.872;25.314;2023-04-28T06:29:41;97452.94;;;7.37;55.80
42771;BME280;28426;42.872;25.314;2023-04-28T06:32:11;97454.63;;;7.38;55.50
42771;BME280;28426;42.872;25.314;2023-04-28T06:34:42;97451.78;;;7.39;55.34
42771;BME280;28426;42.872;25.314;2023-04-28T06:37:13;97461.44;;;7.40;55.60
42771;BME280;28426;42.872;25.314;2023-04-28T06:39:46;97461.44;;;7.40;55.60
42771;BME280;28426;42.872;25.314;2023-04-28T06:42:17;97459.75;;;7.39;55.28
42771;BME280;28426;42.872;25.314;2023-04-28T06:45:00;97464.09;;;7.40;54.34
42771;BME280;28426;42.872;25.314;2023-04-28T06:47:31;97464.25;;;7.39;54.02
42771;BME280;28426;42.872;25.314;2023-04-28T06:50:02;97464.09;;;7.40;53.89
42771;BME280;28426;42.872;25.314;2023-04-28T06:52:35;97464.25;;;7.39;54.02
42771;BME280;28426;42.872;25.314;2023-04-28T06:55:08;97467.91;;;7.38;54.07
42771;BME280;28426;42.872;25.314;2023-04-28T06:57:39;97472.66;;;7.34;53.95
42771;BME280;28426;42.872;25.314;2023-04-28T07:00:14;97471.00;;;7.33;53.93
42771;BME280;28426;42.872;25.314;2023-04-28T07:02:45;97466.69;;;7.32;54.11
42771;BME280;28426;42.872;25.314;2023-04-28T07:05:16;97472.66;;;7.34;54.15
42771;BME280;28426;42.872;25.314;2023-04-28T07:07:47;97475.00;;;7.37;54.18
42771;BME280;28426;42.872;25.314;2023-04-28T07:10:18;97472.06;;;7.40;53.99
42771;BME280;28426;42.872;25.314;2023-04-28T07:12:49;97475.38;;;7.42;53.19
42771;BME280;28426;42.872;25.314;2023-04-28T07:15:23;97468.41;;;7.41;52.80
42771;BME280;28426;42.872;25.314;2023-04-28T07:17:54;97468.41;;;7.41;52.90
42771;BME280;28426;42.872;25.314;2023-04-28T07:20:25;97466.41;;;7.43;52.88
42771;BME280;28426;42.872;25.314;2023-04-28T07:22:55;97467.91;;;7.46;52.83
42771;BME280;28426;42.872;25.314;2023-04-28T07:25:26;97467.47;;;7.51;53.05
42771;BME280;28426;42.872;25.314;2023-04-28T07:27:57;97463.22;;;7.58;52.93
42771;BME280;28426;42.872;25.314;2023-04-28T07:30:31;97456.94;;;7.67;52.89
42771;BME280;28426;42.872;25.314;2023-04-28T07:33:04;97462.97;;;7.78;53.27
42771;BME280;28426;42.872;25.314;2023-04-28T07:35:35;97460.88;;;7.90;53.03
42771;BME280;28426;42.872;25.314;2023-04-28T07:38:06;97458.09;;;8.00;52.78
42771;BME280;28426;42.872;25.314;2023-04-28T07:40:36;97457.28;;;8.07;52.12
42771;BME280;28426;42.872;25.314;2023-04-28T07:43:07;97465.44;;;8.14;51.76
42771;BME280;28426;42.872;25.314;2023-04-28T07:45:41;97464.94;;;8.19;51.50
42771;BME280;28426;42.872;25.314;2023-04-28T07:48:12;97462.66;;;8.24;51.24
42771;BME280;28426;42.872;25.314;2023-04-28T07:50:43;97449.56;;;8.31;51.84
42771;BME280;28426;42.872;25.314;2023-04-28T07:53:14;97454.06;;;8.38;51.67
42771;BME280;28426;42.872;25.314;2023-04-28T07:55:45;97453.25;;;8.46;51.12
42771;BME280;28426;42.872;25.314;2023-04-28T07:58:16;97458.91;;;8.51;50.62
42771;BME280;28426;42.872;25.314;2023-04-28T08:00:49;97456.81;;;8.55;50.54
42771;BME280;28426;42.872;25.314;2023-04-28T08:03:20;97458.31;;;8.58;50.19
42771;BME280;28426;42.872;25.314;2023-04-28T08:05:51;97455.63;;;8.58;49.83
42771;BME280;28426;42.872;25.314;2023-04-28T08:08:22;97458.31;;;8.58;49.97
42771;BME280;28426;42.872;25.314;2023-04-28T08:10:53;97459.13;;;8.58;49.84
42771;BME280;28426;42.872;25.314;2023-04-28T08:13:25;97456.28;;;8.60;49.77
42771;BME280;28426;42.872;25.314;2023-04-28T08:15:58;97456.78;;;8.63;48.91
42771;BME280;28426;42.872;25.314;2023-04-28T08:18:29;97443.16;;;8.67;49.14
42771;BME280;28426;42.872;25.314;2023-04-28T08:21:00;97454.31;;;8.70;49.38
42771;BME280;28426;42.872;25.314;2023-04-28T08:23:31;97445.16;;;8.73;49.04
42771;BME280;28426;42.872;25.314;2023-04-28T08:26:03;97445.69;;;8.76;49.40
42771;BME280;28426;42.872;25.314;2023-04-28T08:28:34;97446.00;;;8.82;49.26
42771;BME280;28426;42.872;25.314;2023-04-28T08:31:08;97437.72;;;8.85;48.94
42771;BME280;28426;42.872;25.314;2023-04-28T08:33:39;97440.88;;;8.88;49.31
42771;BME280;28426;42.872;25.314;2023-04-28T08:36:11;97437.88;;;8.92;49.14
42771;BME280;28426;42.872;25.314;2023-04-28T08:38:42;97437.38;;;8.96;49.10
42771;BME280;28426;42.872;25.314;2023-04-28T08:41:14;97436.88;;;9.01;49.41
42771;BME280;28426;42.872;25.314;2023-04-28T08:43:46;97439.69;;;9.08;49.01
42771;BME280;28426;42.872;25.314;2023-04-28T08:46:20;97436.53;;;9.12;49.27
42771;BME280;28426;42.872;25.314;2023-04-28T08:48:57;97437.69;;;9.18;49.33
42771;BME280;28426;42.872;25.314;2023-04-28T08:51:32;97437.84;;;9.25;48.87
42771;BME280;28426;42.872;25.314;2023-04-28T08:54:07;97436.00;;;9.34;49.41
42771;BME280;28426;42.872;25.314;2023-04-28T08:56:53;97439.47;;;9.51;49.26
42771;BME280;28426;42.872;25.314;2023-04-28T08:59:25;97429.13;;;9.64;49.05
42771;BME280;28426;42.872;25.314;2023-04-28T09:01:58;97428.06;;;9.82;48.85
42771;BME280;28426;42.872;25.314;2023-04-28T09:04:29;97426.50;;;9.96;48.28
42771;BME280;28426;42.872;25.314;2023-04-28T09:07:00;97428.13;;;10.05;47.95
42771;BME280;28426;42.872;25.314;2023-04-28T09:09:31;97421.44;;;10.10;47.60
42771;BME280;28426;42.872;25.314;2023-04-28T09:12:06;97424.09;;;10.10;47.40
42771;BME280;28426;42.872;25.314;2023-04-28T09:14:38;97419.63;;;10.10;47.66
42771;BME280;28426;42.872;25.314;2023-04-28T09:17:12;97424.94;;;10.10;47.86
42771;BME280;28426;42.872;25.314;2023-04-28T09:19:43;97420.81;;;10.07;47.27
42771;BME280;28426;42.872;25.314;2023-04-28T09:22:14;97415.00;;;10.04;47.80
42771;BME280;28426;42.872;25.314;2023-04-28T09:24:53;97407.16;;;10.02;48.11
42771;BME280;28426;42.872;25.314;2023-04-28T09:27:28;97398.34;;;9.93;48.24
42771;BME280;28426;42.872;25.314;2023-04-28T09:29:58;97407.16;;;10.02;48.17
42771;BME280;28426;42.872;25.314;2023-04-28T09:32:33;97404.97;;;10.06;48.15
42771;BME280;28426;42.872;25.314;2023-04-28T09:35:04;97403.78;;;10.08;47.56
42771;BME280;28426;42.872;25.314;2023-04-28T09:37:35;97392.09;;;10.10;48.03
42771;BME280;28426;42.872;25.314;2023-04-28T09:40:07;97398.06;;;10.20;47.58
42771;BME280;28426;42.872;25.314;2023-04-28T09:42:40;97387.00;;;10.31;47.56
42771;BME280;28426;42.872;25.314;2023-04-28T09:45:13;97393.88;;;10.57;48.10
42771;BME280;28426;42.872;25.314;2023-04-28T09:47:47;97382.81;;;10.84;47.82
42771;BME280;28426;42.872;25.314;2023-04-28T09:50:17;97376.69;;;11.14;48.12
42771;BME280;28426;42.872;25.314;2023-04-28T09:52:55;97372.69;;;11.48;47.63
42771;BME280;28426;42.872;25.314;2023-04-28T09:55:27;97374.06;;;11.74;46.99
42771;BME280;28426;42.872;25.314;2023-04-28T09:58:01;97369.34;;;12.06;47.21
42771;BME280;28426;42.872;25.314;2023-04-28T10:00:35;97368.25;;;12.37;46.45
42771;BME280;28426;42.872;25.314;2023-04-28T10:03:10;97358.03;;;12.69;46.22
42771;BME280;28426;42.872;25.314;2023-04-28T10:05:44;97355.63;;;13.03;45.11
42771;BME280;28426;42.872;25.314;2023-04-28T10:08:16;97358.69;;;13.29;45.01
42771;BME280;28426;42.872;25.314;2023-04-28T10:10:48;97346.91;;;13.52;43.99
42771;BME280;28426;42.872;25.314;2023-04-28T10:13:21;97347.84;;;13.72;44.44
42771;BME280;28426;42.872;25.314;2023-04-28T10:15:52;97340.69;;;13.93;44.50
42771;BME280;28426;42.872;25.314;2023-04-28T10:18:28;97336.84;;;14.16;44.38
42771;BME280;28426;42.872;25.314;2023-04-28T10:21:00;97342.50;;;14.42;44.64
42771;BME280;28426;42.872;25.314;2023-04-28T10:23:51;97336.31;;;14.68;42.67
42771;BME280;28426;42.872;25.314;2023-04-28T10:29:23;97326.19;;;14.97;41.72
42771;BME280;28426;42.872;25.314;2023-04-28T10:32:16;97327.88;;;15.12;41.74
42771;BME280;28426;42.872;25.314;2023-04-28T10:34:50;97316.03;;;15.26;42.21
42771;BME280;28426;42.872;25.314;2023-04-28T10:40:31;97310.47;;;15.87;41.54
42771;BME280;28426;42.872;25.314;2023-04-28T10:43:03;97307.72;;;16.07;40.87
42771;BME280;28426;42.872;25.314;2023-04-28T10:45:59;97297.03;;;16.26;39.27
42771;BME280;28426;42.872;25.314;2023-04-28T10:48:53;97305.53;;;16.55;39.80
42771;BME280;28426;42.872;25.314;2023-04-28T10:51:31;97309.50;;;16.78;39.70
42771;BME280;28426;42.872;25.314;2023-04-28T10:54:09;97304.44;;;16.89;38.53
42771;BME280;28426;42.872;25.314;2023-04-28T10:56:41;97293.59;;;16.95;39.74
42771;BME280;28426;42.872;25.314;2023-04-28T10:59:32;97295.53;;;16.88;39.06
42771;BME280;28426;42.872;25.314;2023-04-28T11:05:18;97299.31;;;16.29;37.30
42771;BME280;28426;42.872;25.314;2023-04-28T11:11:15;97292.09;;;15.71;37.15
42771;BME280;28426;42.872;25.314;2023-04-28T11:13:46;97297.97;;;15.47;38.15
42771;BME280;28426;42.872;25.314;2023-04-28T11:16:20;97297.63;;;15.23;37.70
42771;BME280;28426;42.872;25.314;2023-04-28T11:18:54;97295.63;;;15.05;38.10
42771;BME280;28426;42.872;25.314;2023-04-28T11:21:25;97297.09;;;14.87;38.62
42771;BME280;28426;42.872;25.314;2023-04-28T11:23:57;97294.97;;;14.69;38.89
42771;BME280;28426;42.872;25.314;2023-04-28T11:26:36;97285.88;;;14.43;39.41
42771;BME280;28426;42.872;25.314;2023-04-28T11:29:07;97296.19;;;14.26;39.12
42771;BME280;28426;42.872;25.314;2023-04-28T11:31:38;97292.22;;;14.08;39.99
42771;BME280;28426;42.872;25.314;2023-04-28T11:34:10;97291.16;;;13.96;39.61
42771;BME280;28426;42.872;25.314;2023-04-28T11:36:41;97285.78;;;13.89;40.04
42771;BME280;28426;42.872;25.314;2023-04-28T11:39:13;97288.25;;;13.84;39.98
42771;BME280;28426;42.872;25.314;2023-04-28T11:41:46;97293.16;;;13.73;39.92
42771;BME280;28426;42.872;25.314;2023-04-28T11:44:18;97278.06;;;13.59;39.74
42771;BME280;28426;42.872;25.314;2023-04-28T11:46:50;97277.84;;;13.54;40.75
42771;BME280;28426;42.872;25.314;2023-04-28T11:49:23;97268.97;;;13.53;40.53
42771;BME280;28426;42.872;25.314;2023-04-28T11:51:55;97266.69;;;13.57;40.64
42771;BME280;28426;42.872;25.314;2023-04-28T11:54:27;97264.22;;;13.62;41.20
42771;BME280;28426;42.872;25.314;2023-04-28T11:57:02;97264.69;;;13.72;40.92
42771;BME280;28426;42.872;25.314;2023-04-28T11:59:34;97264.91;;;13.78;40.74
42771;BME280;28426;42.872;25.314;2023-04-28T12:02:08;97257.09;;;13.83;40.42
42771;BME280;28426;42.872;25.314;2023-04-28T12:04:40;97251.94;;;13.88;40.34
42771;BME280;28426;42.872;25.314;2023-04-28T12:07:12;97251.53;;;13.91;40.30
42771;BME280;28426;42.872;25.314;2023-04-28T12:09:45;97244.94;;;13.87;39.96
42771;BME280;28426;42.872;25.314;2023-04-28T12:12:28;97251.31;;;13.86;40.08
42771;BME280;28426;42.872;25.314;2023-04-28T12:15:16;97240.38;;;13.81;40.35
42771;BME280;28426;42.872;25.314;2023-04-28T12:17:49;97231.69;;;13.72;39.11
42771;BME280;28426;42.872;25.314;2023-04-28T12:20:33;97237.00;;;13.58;39.86
42771;BME280;28426;42.872;25.314;2023-04-28T12:23:06;97229.97;;;13.51;40.83
42771;BME280;28426;42.872;25.314;2023-04-28T12:25:42;97229.13;;;13.50;41.35
42771;BME280;28426;42.872;25.314;2023-04-28T12:28:17;97228.31;;;13.50;40.56
42771;BME280;28426;42.872;25.314;2023-04-28T12:30:47;97224.38;;;13.45;40.82
42771;BME280;28426;42.872;25.314;2023-04-28T12:33:22;97221.03;;;13.43;40.56
42771;BME280;28426;42.872;25.314;2023-04-28T12:35:54;97219.97;;;13.38;40.81
42771;BME280;28426;42.872;25.314;2023-04-28T12:38:25;97208.84;;;13.34;41.17
42771;BME280;28426;42.872;25.314;2023-04-28T12:40:56;97206.81;;;13.36;41.50
42771;BME280;28426;42.872;25.314;2023-04-28T12:43:31;97204.94;;;13.37;41.30
42771;BME280;28426;42.872;25.314;2023-04-28T12:46:02;97205.78;;;13.37;41.39
42771;BME280;28426;42.872;25.314;2023-04-28T12:48:35;97198.13;;;13.34;41.81
42771;BME280;28426;42.872;25.314;2023-04-28T12:51:06;97195.25;;;13.36;40.75
42771;BME280;28426;42.872;25.314;2023-04-28T12:53:37;97199.75;;;13.35;41.24
42771;BME280;28426;42.872;25.314;2023-04-28T12:56:07;97196.09;;;13.36;41.52
42771;BME280;28426;42.872;25.314;2023-04-28T12:58:41;97195.88;;;13.31;41.04
42771;BME280;28426;42.872;25.314;2023-04-28T13:01:11;97194.59;;;13.27;41.27
42771;BME280;28426;42.872;25.314;2023-04-28T13:03:43;97195.59;;;13.26;41.78
42771;BME280;28426;42.872;25.314;2023-04-28T13:06:14;97192.13;;;13.25;41.53
42771;BME280;28426;42.872;25.314;2023-04-28T13:08:45;97188.59;;;13.25;41.28
42771;BME280;28426;42.872;25.314;2023-04-28T13:11:16;97182.81;;;13.21;40.83
42771;BME280;28426;42.872;25.314;2023-04-28T13:13:52;97181.16;;;13.13;41.22
42771;BME280;28426;42.872;25.314;2023-04-28T13:16:23;97182.97;;;13.06;41.61
42771;BME280;28426;42.872;25.314;2023-04-28T13:18:58;97190.38;;;13.04;41.75
42771;BME280;28426;42.872;25.314;2023-04-28T13:21:29;97188.09;;;13.01;42.31
42771;BME280;28426;42.872;25.314;2023-04-28T13:24:00;97176.53;;;13.00;42.17
42771;BME280;28426;42.872;25.314;2023-04-28T13:26:31;97186.88;;;13.03;42.41
42771;BME280;28426;42.872;25.314;2023-04-28T13:29:04;97183.38;;;13.10;42.59
42771;BME280;28426;42.872;25.314;2023-04-28T13:31:35;97180.72;;;13.16;42.27
42771;BME280;28426;42.872;25.314;2023-04-28T13:34:07;97173.94;;;13.20;42.46
42771;BME280;28426;42.872;25.314;2023-04-28T13:36:42;97162.81;;;13.17;41.74
42771;BME280;28426;42.872;25.314;2023-04-28T13:39:14;97174.59;;;13.23;42.08